< < Back
Terminal Aerodrome Forecast


Current Version              Previous Versions:   1  2  3  4  5  6  7  8  9  

Terminal Aerodrome Forecast

983
FTUS42 KTAE 301124
TAFDHN
TAF
KDHN 301124Z 3012/3112 21010KT P6SM BKN025
     FM301500 28013G23KT P6SM SCT025 BKN040
      TEMPO 3018/3022 VRB15G25KT 3SM TSRA BKN025CB
     FM310000 29004KT P6SM SCT250
     FM310600 28004KT 4SM BR OVC050=

Latest METAR

101
SAUS70 KWBC 302300 RRD
MTRDHN
METAR KDHN 302253Z 30008KT 10SM FEW055 24/14 A3014 RMK AO2 SLP203
T02390139


USA.gov is the U.S. government's official web portal to all federal, state and local government web resources and services.